createdAt,value
2023-05-05T00:00:41.556Z,72.85
2023-05-05T00:03:28.956Z,72.77
2023-05-05T00:06:16.250Z,72.91
2023-05-05T00:09:03.217Z,72.54
2023-05-05T00:11:49.950Z,72.51
2023-05-05T00:14:36.579Z,72.46
2023-05-05T00:17:23.512Z,72.50
2023-05-05T00:20:10.990Z,73.00
2023-05-05T00:22:58.042Z,72.76
2023-05-05T00:25:44.811Z,73.47
2023-05-05T00:28:31.772Z,73.31
2023-05-05T00:31:22.124Z,73.77
2023-05-05T00:34:10.147Z,73.53
2023-05-05T00:36:56.914Z,73.71
2023-05-05T00:39:44.858Z,73.83
2023-05-05T00:42:46.527Z,74.23
2023-05-05T00:45:33.295Z,73.86
2023-05-05T00:48:24.501Z,73.34
2023-05-05T00:51:11.393Z,73.63
2023-05-05T00:53:58.486Z,73.74
2023-05-05T00:56:45.992Z,73.62
2023-05-05T00:59:34.399Z,73.71
2023-05-05T01:02:23.027Z,73.75
2023-05-05T01:05:11.266Z,73.74
2023-05-05T01:08:21.200Z,73.72
2023-05-05T01:11:17.293Z,73.85
2023-05-05T01:14:18.367Z,74.31
2023-05-05T01:17:18.594Z,74.26
2023-05-05T01:20:23.608Z,74.33
2023-05-05T01:23:39.281Z,74.47
2023-05-05T01:26:38.910Z,74.96
2023-05-05T01:29:41.515Z,74.88
2023-05-05T01:32:31.889Z,74.83
2023-05-05T01:35:29.977Z,74.56
2023-05-05T01:38:26.428Z,74.58
2023-05-05T01:41:25.590Z,74.75
2023-05-05T01:44:14.805Z,74.53
2023-05-05T01:47:02.785Z,74.79
2023-05-05T01:49:51.605Z,74.69
2023-05-05T01:52:40.205Z,74.70
2023-05-05T01:55:29.328Z,74.70
2023-05-05T01:58:17.400Z,74.64
2023-05-05T02:01:05.688Z,74.62
2023-05-05T02:03:55.117Z,74.33
2023-05-05T02:06:44.445Z,74.53
2023-05-05T02:09:32.937Z,74.22
2023-05-05T02:12:21.978Z,74.46
2023-05-05T02:15:11.340Z,74.40
2023-05-05T02:18:00.434Z,73.94
2023-05-05T02:20:47.962Z,74.29
2023-05-05T02:23:36.448Z,74.28
2023-05-05T02:26:24.866Z,74.67
2023-05-05T02:29:18.187Z,74.43
2023-05-05T02:32:11.511Z,74.77
2023-05-05T02:37:02.700Z,74.71
2023-05-05T02:39:58.352Z,74.74
2023-05-05T02:42:47.889Z,74.57
2023-05-05T02:45:34.070Z,74.68
2023-05-05T02:48:20.673Z,74.86
2023-05-05T02:51:07.653Z,74.70
2023-05-05T02:53:55.808Z,74.99
2023-05-05T02:56:48.434Z,74.84
2023-05-05T02:59:48.125Z,75.17
2023-05-05T03:03:05.203Z,74.90
2023-05-05T03:06:01.687Z,74.77
2023-05-05T03:09:04.872Z,74.64
2023-05-05T03:12:04.014Z,74.64
2023-05-05T03:14:58.197Z,74.36
2023-05-05T03:17:46.813Z,74.27
2023-05-05T03:20:35.101Z,74.17
2023-05-05T03:23:25.017Z,74.17
2023-05-05T03:26:18.607Z,74.64
2023-05-05T03:29:08.176Z,74.74
2023-05-05T03:31:58.866Z,74.47
2023-05-05T03:34:45.873Z,74.67
2023-05-05T03:37:32.989Z,74.40
2023-05-05T03:40:23.523Z,74.26
2023-05-05T03:43:17.458Z,74.15
2023-05-05T03:46:04.722Z,74.13
2023-05-05T03:48:53.583Z,74.00
2023-05-05T03:51:41.474Z,73.79
2023-05-05T03:54:28.724Z,73.83
2023-05-05T03:57:17.009Z,73.93
2023-05-05T04:00:04.034Z,74.11
2023-05-05T04:03:01.395Z,74.22
2023-05-05T04:05:48.544Z,74.29
2023-05-05T04:08:36.247Z,74.08
2023-05-05T04:11:22.959Z,73.80
2023-05-05T04:14:10.604Z,73.60
2023-05-05T04:16:57.504Z,73.32
2023-05-05T04:19:44.762Z,73.42
2023-05-05T04:22:33.989Z,73.30
2023-05-05T04:25:23.484Z,73.27
2023-05-05T04:28:10.530Z,73.13
2023-05-05T04:31:32.865Z,72.95
2023-05-05T04:34:19.810Z,73.44
2023-05-05T04:37:07.131Z,72.87
2023-05-05T04:39:55.180Z,72.76
2023-05-05T04:42:42.067Z,72.15
2023-05-05T04:45:29.672Z,71.57
2023-05-05T04:48:16.804Z,71.25
2023-05-05T04:51:12.369Z,70.81
2023-05-05T04:54:01.039Z,70.25
2023-05-05T04:56:48.286Z,70.27
2023-05-05T04:59:35.112Z,69.95
2023-05-05T05:02:22.423Z,69.86
2023-05-05T05:05:11.824Z,69.37
2023-05-05T05:07:59.753Z,69.19
2023-05-05T05:10:46.746Z,68.65
2023-05-05T05:13:33.926Z,68.02
2023-05-05T05:16:21.696Z,67.83
2023-05-05T05:19:09.085Z,67.98
2023-05-05T05:22:01.657Z,67.28
2023-05-05T05:24:49.638Z,67.03
2023-05-05T05:27:39.575Z,67.21
2023-05-05T05:30:54.070Z,66.61
2023-05-05T05:33:41.866Z,66.20
2023-05-05T05:36:29.632Z,66.01
2023-05-05T05:39:16.218Z,65.39
2023-05-05T05:42:03.773Z,65.73
2023-05-05T05:44:53.185Z,64.75
2023-05-05T05:47:40.097Z,64.69
2023-05-05T05:50:28.793Z,63.83
2023-05-05T05:53:16.286Z,63.55
2023-05-05T05:56:05.169Z,63.34
2023-05-05T05:58:52.172Z,63.12
2023-05-05T06:01:40.755Z,62.22
2023-05-05T06:04:31.701Z,61.69
2023-05-05T06:07:18.889Z,60.73
2023-05-05T06:10:25.160Z,59.89
2023-05-05T06:13:14.486Z,60.18
2023-05-05T06:16:06.768Z,59.74
2023-05-05T06:18:54.655Z,59.37
2023-05-05T06:21:41.770Z,58.66
2023-05-05T06:24:29.353Z,58.35
2023-05-05T06:27:19.752Z,57.99
2023-05-05T06:30:09.857Z,58.14
2023-05-05T06:32:57.156Z,57.37
2023-05-05T06:35:45.961Z,57.65
2023-05-05T06:38:32.755Z,58.11
2023-05-05T06:41:19.728Z,57.68
2023-05-05T06:44:07.479Z,57.41
2023-05-05T06:46:54.297Z,56.08
2023-05-05T06:49:44.136Z,56.47
2023-05-05T06:52:31.292Z,55.97
2023-05-05T06:55:18.060Z,56.12
2023-05-05T06:58:05.033Z,54.81
2023-05-05T07:00:52.364Z,53.71
2023-05-05T07:03:40.732Z,54.71
2023-05-05T07:06:28.277Z,52.47
2023-05-05T07:09:17.025Z,52.50
2023-05-05T07:12:05.294Z,52.25
2023-05-05T07:14:53.671Z,51.91
2023-05-05T07:17:40.954Z,51.87
2023-05-05T07:20:28.832Z,51.15
2023-05-05T07:23:21.109Z,50.20
2023-05-05T07:26:22.076Z,50.82
2023-05-05T07:29:10.865Z,49.14
2023-05-05T07:31:58.006Z,47.98
2023-05-05T07:34:47.004Z,47.37
2023-05-05T07:37:40.323Z,46.84
2023-05-05T07:40:27.003Z,46.28
2023-05-05T07:43:18.611Z,44.32
2023-05-05T07:51:17.046Z,44.24
2023-05-05T07:54:11.056Z,42.74
2023-05-05T07:56:59.066Z,43.38
2023-05-05T07:59:45.801Z,43.55
2023-05-05T08:02:32.629Z,44.09
2023-05-05T08:05:20.163Z,43.23
2023-05-05T08:08:07.516Z,43.47
2023-05-05T08:10:58.509Z,43.19
2023-05-05T08:13:49.055Z,41.75
2023-05-05T08:16:36.128Z,40.68
2023-05-05T08:19:29.337Z,41.74
2023-05-05T08:22:16.587Z,42.79
2023-05-05T08:25:03.376Z,42.57
2023-05-05T08:27:50.588Z,42.26
2023-05-05T08:30:37.281Z,41.11
2023-05-05T08:33:35.573Z,41.23
2023-05-05T08:36:22.479Z,41.17
2023-05-05T08:39:09.194Z,40.07
2023-05-05T08:41:58.578Z,39.68
2023-05-05T08:44:45.720Z,40.16
2023-05-05T08:47:46.914Z,39.02
2023-05-05T08:50:44.271Z,38.52
2023-05-05T08:53:50.225Z,39.18
2023-05-05T08:56:41.832Z,39.22
2023-05-05T08:59:31.658Z,39.58
2023-05-05T09:02:23.915Z,38.91
2023-05-05T09:05:11.366Z,38.31
2023-05-05T09:07:58.641Z,38.95
2023-05-05T09:10:53.449Z,39.06
2023-05-05T09:13:47.668Z,38.75
2023-05-05T09:16:34.358Z,38.77
2023-05-05T09:20:22.117Z,38.85
2023-05-05T09:23:50.634Z,38.86
2023-05-05T09:26:59.022Z,39.26
2023-05-05T09:38:25.652Z,38.69
2023-05-05T09:41:15.901Z,38.68
2023-05-05T09:44:03.358Z,39.23
2023-05-05T09:46:52.049Z,39.48
2023-05-05T09:49:39.457Z,38.22
2023-05-05T09:52:28.008Z,37.72
2023-05-05T09:55:18.256Z,36.11
2023-05-05T09:58:20.857Z,33.88
2023-05-05T10:01:22.891Z,34.30
2023-05-05T10:04:30.344Z,35.03
2023-05-05T10:07:26.582Z,34.77
2023-05-05T10:10:17.706Z,34.01
2023-05-05T10:13:04.828Z,33.73
2023-05-05T10:15:54.692Z,33.38
2023-05-05T10:18:46.739Z,31.92
2023-05-05T10:21:38.011Z,32.14
2023-05-05T10:24:38.991Z,31.75
2023-05-05T10:31:02.187Z,31.06
2023-05-05T10:33:55.677Z,31.21
2023-05-05T10:36:43.146Z,31.41
2023-05-05T10:42:42.380Z,29.69
2023-05-05T10:45:29.438Z,29.70
2023-05-05T10:48:27.136Z,29.65
2023-05-05T10:51:40.593Z,29.58
2023-05-05T10:54:42.645Z,30.13
2023-05-05T10:58:00.604Z,29.89
2023-05-05T11:00:50.022Z,29.22
2023-05-05T11:03:37.163Z,30.46
2023-05-05T11:06:27.193Z,29.19
2023-05-05T11:09:31.948Z,27.28
2023-05-05T11:12:18.928Z,28.76
2023-05-05T11:15:28.492Z,28.15
2023-05-05T11:18:36.052Z,27.25
2023-05-05T11:21:22.717Z,27.81
2023-05-05T11:24:39.874Z,28.19
2023-05-05T11:28:04.334Z,27.80
2023-05-05T11:30:58.244Z,28.57
2023-05-05T11:33:53.809Z,28.31
2023-05-05T11:36:41.045Z,28.12
2023-05-05T11:39:34.485Z,28.15
2023-05-05T11:42:30.280Z,28.33
2023-05-05T11:45:25.074Z,28.29
2023-05-05T11:51:38.590Z,28.73
2023-05-05T11:54:50.293Z,28.64
2023-05-05T12:01:08.596Z,28.63
2023-05-05T12:04:03.231Z,28.80
2023-05-05T12:07:14.347Z,28.11
2023-05-05T12:10:01.857Z,27.34
2023-05-05T12:12:49.543Z,27.12
2023-05-05T12:15:37.051Z,26.02
2023-05-05T12:18:25.578Z,25.89
2023-05-05T12:21:35.634Z,25.77
2023-05-05T12:24:23.238Z,25.32
2023-05-05T12:27:19.528Z,25.89
2023-05-05T12:30:14.020Z,25.46
2023-05-05T12:33:03.894Z,25.22
2023-05-05T12:35:51.436Z,25.13
2023-05-05T12:38:39.013Z,24.31
2023-05-05T12:41:26.121Z,23.66
2023-05-05T12:44:12.904Z,23.78
2023-05-05T12:46:59.757Z,22.91
2023-05-05T12:49:51.759Z,24.25
2023-05-05T12:52:45.318Z,25.66
2023-05-05T12:55:40.122Z,25.12
2023-05-05T12:58:28.010Z,24.61
2023-05-05T13:01:14.716Z,24.63
2023-05-05T13:04:06.488Z,24.23
2023-05-05T13:07:14.899Z,24.52
2023-05-05T13:10:10.882Z,24.69
2023-05-05T13:12:58.554Z,27.51
2023-05-05T13:15:47.556Z,29.74
2023-05-05T13:18:48.506Z,30.13
2023-05-05T13:21:35.220Z,30.18
2023-05-05T13:24:34.446Z,29.79
2023-05-05T13:27:24.988Z,29.80
2023-05-05T13:30:12.445Z,29.29
2023-05-05T13:32:59.484Z,28.66
2023-05-05T13:35:46.511Z,28.59
2023-05-05T13:38:33.450Z,27.75
2023-05-05T13:41:20.573Z,27.80
2023-05-05T13:44:07.867Z,28.59
2023-05-05T13:46:55.311Z,28.16
2023-05-05T13:49:42.438Z,27.11
2023-05-05T13:52:31.587Z,26.58
2023-05-05T13:55:21.092Z,25.99
2023-05-05T13:58:08.272Z,24.82
2023-05-05T14:00:55.510Z,25.48
2023-05-05T14:03:42.725Z,26.10
2023-05-05T14:06:32.605Z,26.61
2023-05-05T14:09:19.769Z,26.10
2023-05-05T14:12:06.751Z,25.99
2023-05-05T14:14:54.814Z,25.90
2023-05-05T14:17:41.745Z,26.13
2023-05-05T14:20:28.631Z,25.96
2023-05-05T14:23:15.377Z,25.24
2023-05-05T14:26:02.171Z,24.89
2023-05-05T14:28:49.932Z,24.77
2023-05-05T14:31:37.034Z,24.56
2023-05-05T14:34:24.030Z,24.68
2023-05-05T14:37:10.895Z,24.39
2023-05-05T14:39:58.431Z,24.03
2023-05-05T14:42:45.077Z,23.95
2023-05-05T14:45:32.660Z,23.71
2023-05-05T14:48:22.494Z,23.38
2023-05-05T14:51:09.787Z,22.94
2023-05-05T14:53:56.568Z,23.30
2023-05-05T14:56:45.046Z,23.20
2023-05-05T14:59:33.643Z,22.76
2023-05-05T15:02:20.809Z,23.03
2023-05-05T15:05:08.483Z,22.87
2023-05-05T15:07:58.679Z,23.18
2023-05-05T15:10:47.002Z,23.09
2023-05-05T15:13:34.026Z,23.03
2023-05-05T15:16:21.317Z,23.20
2023-05-05T15:19:07.991Z,22.96
2023-05-05T15:21:55.588Z,23.11
2023-05-05T15:24:42.357Z,23.26
2023-05-05T15:27:31.877Z,23.81
2023-05-05T15:30:18.723Z,25.43
2023-05-05T15:33:05.839Z,26.60
2023-05-05T15:35:52.832Z,27.61
2023-05-05T15:38:44.614Z,28.96
2023-05-05T15:41:33.750Z,29.66
2023-05-05T15:44:20.559Z,30.99
2023-05-05T15:47:07.707Z,31.77
2023-05-05T15:49:54.866Z,32.44
2023-05-05T15:52:42.468Z,33.30
2023-05-05T15:55:58.923Z,33.92
2023-05-05T15:58:45.719Z,34.24
2023-05-05T16:01:33.789Z,34.33
2023-05-05T16:04:20.850Z,35.10
2023-05-05T16:07:07.848Z,35.89
2023-05-05T16:09:57.651Z,37.04
2023-05-05T16:12:44.888Z,37.46
2023-05-05T16:15:31.396Z,38.04
2023-05-05T16:18:18.825Z,38.43
2023-05-05T16:21:05.736Z,38.89
2023-05-05T16:23:52.489Z,39.18
2023-05-05T16:26:40.423Z,39.74
2023-05-05T16:36:29.769Z,41.88
2023-05-05T16:46:55.562Z,45.16
2023-05-05T16:57:43.841Z,48.30
2023-05-05T17:04:12.034Z,50.00
2023-05-05T17:07:05.256Z,50.44
2023-05-05T17:10:03.978Z,50.94
2023-05-05T17:13:15.761Z,51.35
2023-05-05T17:16:02.907Z,52.09
2023-05-05T17:18:49.741Z,52.80
2023-05-05T17:21:36.580Z,53.05
2023-05-05T17:24:24.171Z,53.78
2023-05-05T17:27:11.047Z,53.99
2023-05-05T17:29:58.877Z,54.77
2023-05-05T17:32:46.292Z,55.13
2023-05-05T17:35:34.447Z,55.83
2023-05-05T17:38:21.476Z,56.06
2023-05-05T17:41:08.030Z,56.37
2023-05-05T17:43:55.146Z,56.54
2023-05-05T17:46:42.170Z,56.80
2023-05-05T17:49:29.215Z,57.11
2023-05-05T17:52:16.334Z,57.16
2023-05-05T17:55:03.231Z,57.51
2023-05-05T17:57:50.406Z,57.65
2023-05-05T18:00:37.018Z,58.00
2023-05-05T18:03:23.984Z,57.28
2023-05-05T18:06:11.173Z,58.34
2023-05-05T18:08:58.228Z,58.03
2023-05-05T18:11:44.704Z,58.51
2023-05-05T18:14:31.894Z,58.57
2023-05-05T18:17:18.549Z,59.53
2023-05-05T18:20:07.185Z,59.24
2023-05-05T18:22:53.850Z,58.09
2023-05-05T18:25:41.646Z,58.98
2023-05-05T18:28:28.716Z,59.52
2023-05-05T18:34:44.210Z,59.37
2023-05-05T18:37:31.371Z,59.20
2023-05-05T18:40:42.028Z,60.59
2023-05-05T18:46:53.771Z,61.09
2023-05-05T18:50:05.501Z,61.45
2023-05-05T18:56:17.790Z,61.64
2023-05-05T19:02:31.060Z,60.85
2023-05-05T19:05:19.297Z,61.52
2023-05-05T19:08:07.869Z,60.67
2023-05-05T19:10:54.369Z,61.12
2023-05-05T19:13:41.429Z,61.22
2023-05-05T19:16:29.322Z,61.51
2023-05-05T19:19:17.209Z,61.73
2023-05-05T19:22:04.313Z,61.87
2023-05-05T19:24:51.363Z,62.14
2023-05-05T19:27:39.156Z,62.46
2023-05-05T19:30:27.028Z,62.72
2023-05-05T19:33:15.771Z,62.55
2023-05-05T19:36:02.935Z,62.50
2023-05-05T19:38:49.819Z,62.85
2023-05-05T19:41:36.527Z,63.32
2023-05-05T19:44:23.872Z,64.13
2023-05-05T19:47:12.344Z,63.83
2023-05-05T19:49:59.229Z,63.97
2023-05-05T19:52:46.055Z,63.51
2023-05-05T19:55:33.286Z,64.08
2023-05-05T19:58:20.387Z,63.64
2023-05-05T20:01:08.540Z,63.52
2023-05-05T20:03:57.092Z,63.56
2023-05-05T20:06:44.047Z,63.66
2023-05-05T20:09:31.009Z,63.44
2023-05-05T20:12:19.966Z,64.03
2023-05-05T20:15:07.681Z,64.21
2023-05-05T20:17:55.077Z,64.71
2023-05-05T20:20:42.213Z,64.96
2023-05-05T20:23:29.338Z,64.77
2023-05-05T20:26:17.098Z,65.15
2023-05-05T20:29:04.993Z,64.88
2023-05-05T20:31:51.872Z,64.61
2023-05-05T20:34:39.407Z,64.80
2023-05-05T20:37:27.263Z,65.14
2023-05-05T20:40:14.505Z,65.04
2023-05-05T20:43:01.114Z,64.79
2023-05-05T20:45:47.825Z,64.67
2023-05-05T20:48:34.672Z,64.64
2023-05-05T20:51:21.653Z,64.77
2023-05-05T20:54:10.296Z,64.67
2023-05-05T20:56:58.789Z,64.30
2023-05-05T20:59:45.956Z,64.37
2023-05-05T21:02:33.063Z,63.80
2023-05-05T21:05:20.146Z,62.80
2023-05-05T21:08:08.125Z,62.48
2023-05-05T21:10:55.368Z,62.34
2023-05-05T21:13:42.629Z,62.22
2023-05-05T21:16:29.472Z,61.90
2023-05-05T21:19:16.903Z,61.96
2023-05-05T21:22:04.551Z,61.77
2023-05-05T21:24:51.539Z,61.64
2023-05-05T21:27:38.374Z,62.15
2023-05-05T21:30:25.755Z,62.62
2023-05-05T21:33:13.332Z,62.74
2023-05-05T21:36:00.199Z,62.44
2023-05-05T21:38:47.181Z,62.65
2023-05-05T21:41:33.838Z,63.05
2023-05-05T21:44:21.075Z,63.51
2023-05-05T21:47:07.936Z,64.30
2023-05-05T21:49:54.627Z,64.10
2023-05-05T21:52:41.590Z,65.00
2023-05-05T21:55:28.332Z,65.20
2023-05-05T21:58:16.571Z,65.47
2023-05-05T22:01:03.813Z,65.93
2023-05-05T22:03:51.174Z,65.91
2023-05-05T22:06:38.165Z,66.27
2023-05-05T22:09:52.597Z,65.81
2023-05-05T22:12:39.290Z,65.89
2023-05-05T22:15:29.973Z,65.59
2023-05-05T22:18:19.768Z,65.26
2023-05-05T22:21:06.837Z,65.03
2023-05-05T22:23:53.795Z,65.44
2023-05-05T22:26:43.347Z,65.23
2023-05-05T22:29:30.717Z,65.47
2023-05-05T22:32:17.556Z,65.69
2023-05-05T22:35:05.937Z,65.46
2023-05-05T22:37:52.861Z,65.62
2023-05-05T22:40:40.059Z,65.14
2023-05-05T22:43:27.020Z,65.51
2023-05-05T22:46:15.276Z,65.75
2023-05-05T22:49:02.029Z,66.18
2023-05-05T22:51:49.065Z,66.41
2023-05-05T22:54:36.185Z,67.18
2023-05-05T22:57:24.823Z,67.14
2023-05-05T23:00:28.746Z,67.36
2023-05-05T23:03:15.649Z,67.50
2023-05-05T23:06:02.474Z,67.04
2023-05-05T23:08:49.356Z,67.39
2023-05-05T23:11:35.908Z,67.42
2023-05-05T23:14:22.714Z,67.59
2023-05-05T23:17:09.858Z,67.13
2023-05-05T23:19:57.009Z,66.83
2023-05-05T23:22:43.819Z,67.39
2023-05-05T23:25:30.820Z,67.16
2023-05-05T23:28:18.809Z,67.11
2023-05-05T23:31:06.163Z,67.41
2023-05-05T23:33:52.979Z,67.39
2023-05-05T23:36:39.918Z,67.64
2023-05-05T23:39:26.738Z,67.58
2023-05-05T23:42:13.642Z,67.34
2023-05-05T23:45:00.958Z,67.46
2023-05-05T23:47:47.890Z,67.16
2023-05-05T23:50:34.739Z,66.81
2023-05-05T23:53:21.678Z,66.65
2023-05-05T23:56:08.974Z,66.24
2023-05-05T23:58:56.292Z,65.84
